Time,TemperatureF,DewpointF,PressureIn,WindDirection,WindDirectionDegrees,WindSpeedMPH,WindSpeedGustMPH,Humidity,HourlyPrecipIn,Conditions,Clouds,dailyrainin,SoftwareType,DateUTC
2013-01-31 05:00:00,38.0,35.0,-100.00,SW,233,2.0,-999.0,88,0.00,,,-99.99,,2013-01-31 13:00:00,
2013-01-31 06:00:00,36.0,34.0,-100.00,SE,133,3.0,-999.0,91,0.00,,,-99.99,,2013-01-31 14:00:00,
2013-01-31 06:22:00,36.0,34.0,-100.00,SE,133,3.0,-999.0,91,0.00,,,-99.99,,2013-01-31 14:22:00,
2013-01-31 06:32:00,36.0,34.0,-100.00,SE,133,3.0,-999.0,91,0.00,,,-99.99,,2013-01-31 14:32:00,
2013-01-31 06:42:00,36.0,34.0,-100.00,SE,133,3.0,-999.0,91,0.00,,,-99.99,,2013-01-31 14:42:00,
2013-01-31 06:52:00,36.0,34.0,-100.00,SE,133,3.0,-999.0,91,0.00,,,-99.99,,2013-01-31 14:52:00,
2013-01-31 07:00:00,35.0,33.0,-100.00,ESE,122,3.0,-999.0,91,0.00,,,-99.99,,2013-01-31 15:00:00,
2013-01-31 07:23:00,35.0,33.0,-100.00,ESE,122,3.0,-999.0,91,0.00,,,-99.99,,2013-01-31 15:23:00,
2013-01-31 07:32:00,35.0,33.0,-100.00,ESE,122,3.0,-999.0,91,0.00,,,-99.99,,2013-01-31 15:32:00,
2013-01-31 07:42:00,35.0,33.0,-100.00,ESE,122,3.0,-999.0,91,0.00,,,-99.99,,2013-01-31 15:42:00,
2013-01-31 07:52:00,35.0,33.0,-100.00,ESE,122,3.0,-999.0,91,0.00,,,-99.99,,2013-01-31 15:52:00,
2013-01-31 08:00:00,36.0,33.0,-100.00,ESE,106,3.0,-999.0,89,0.00,,,-99.99,,2013-01-31 16:00:00,
2013-01-31 08:22:00,36.0,33.0,-100.00,ESE,106,3.0,-999.0,89,0.00,,,-99.99,,2013-01-31 16:22:00,
2013-01-31 08:33:00,36.0,33.0,-100.00,ESE,106,3.0,-999.0,89,0.00,,,-99.99,,2013-01-31 16:33:00,
2013-01-31 08:42:00,36.0,33.0,-100.00,ESE,106,3.0,-999.0,89,0.00,,,-99.99,,2013-01-31 16:42:00,
2013-01-31 08:52:00,36.0,33.0,-100.00,ESE,106,3.0,-999.0,89,0.00,,,-99.99,,2013-01-31 16:52:00,
2013-01-31 09:00:00,45.0,40.0,-100.00,ESE,106,1.0,-999.0,83,0.00,,,-99.99,,2013-01-31 17:00:00,
2013-01-31 09:23:00,45.0,40.0,-100.00,ESE,106,1.0,-999.0,83,0.00,,,-99.99,,2013-01-31 17:23:00,
2013-01-31 09:32:00,45.0,40.0,-100.00,ESE,106,1.0,-999.0,83,0.00,,,-99.99,,2013-01-31 17:32:00,
2013-01-31 09:44:00,45.0,40.0,-100.00,ESE,106,1.0,-999.0,83,0.00,,,-99.99,,2013-01-31 17:44:00,
2013-01-31 09:53:00,45.0,40.0,-100.00,ESE,106,1.0,-999.0,83,0.00,,,-99.99,,2013-01-31 17:53:00,
2013-01-31 10:00:00,52.0,42.0,-100.00,SE,145,2.0,-999.0,67,0.00,,,-99.99,,2013-01-31 18:00:00,
2013-01-31 10:22:00,52.0,42.0,-100.00,SE,145,2.0,-999.0,67,0.00,,,-99.99,,2013-01-31 18:22:00,
2013-01-31 10:32:00,52.0,42.0,-100.00,SE,145,2.0,-999.0,67,0.00,,,-99.99,,2013-01-31 18:32:00,
2013-01-31 10:43:00,52.0,42.0,-100.00,SE,145,2.0,-999.0,67,0.00,,,-99.99,,2013-01-31 18:43:00,
2013-01-31 10:52:00,52.0,42.0,-100.00,SE,145,2.0,-999.0,67,0.00,,,-99.99,,2013-01-31 18:52:00,
2013-01-31 11:00:00,55.0,43.0,-100.00,West,280,2.0,-999.0,62,0.00,,,-99.99,,2013-01-31 19:00:00,
2013-01-31 11:22:00,55.0,43.0,-100.00,West,280,2.0,-999.0,62,0.00,,,-99.99,,2013-01-31 19:22:00,
2013-01-31 11:33:00,55.0,43.0,-100.00,West,280,2.0,-999.0,62,0.00,,,-99.99,,2013-01-31 19:33:00,
2013-01-31 11:42:00,55.0,43.0,-100.00,West,280,2.0,-999.0,62,0.00,,,-99.99,,2013-01-31 19:42:00,
2013-01-31 11:52:00,55.0,43.0,-100.00,West,280,2.0,-999.0,62,0.00,,,-99.99,,2013-01-31 19:52:00,
2013-01-31 12:00:00,58.0,40.0,-100.00,NNE,25,2.0,-999.0,52,0.00,,,-99.99,,2013-01-31 20:00:00,
2013-01-31 12:22:00,58.0,40.0,-100.00,NNE,25,2.0,-999.0,52,0.00,,,-99.99,,2013-01-31 20:22:00,
2013-01-31 12:32:00,58.0,40.0,-100.00,NNE,25,2.0,-999.0,52,0.00,,,-99.99,,2013-01-31 20:32:00,
2013-01-31 12:42:00,58.0,40.0,-100.00,NNE,25,2.0,-999.0,52,0.00,,,-99.99,,2013-01-31 20:42:00,
2013-01-31 12:52:00,58.0,40.0,-100.00,NNE,25,2.0,-999.0,52,0.00,,,-99.99,,2013-01-31 20:52:00,
2013-01-31 13:00:00,62.0,42.0,-100.00,SSW,210,1.0,-999.0,49,0.00,,,-99.99,,2013-01-31 21:00:00,
2013-01-31 13:22:00,62.0,42.0,-100.00,SSW,210,1.0,-999.0,49,0.00,,,-99.99,,2013-01-31 21:22:00,
2013-01-31 13:32:00,62.0,42.0,-100.00,SSW,210,1.0,-999.0,49,0.00,,,-99.99,,2013-01-31 21:32:00,
2013-01-31 13:42:00,62.0,42.0,-100.00,SSW,210,1.0,-999.0,49,0.00,,,-99.99,,2013-01-31 21:42:00,
2013-01-31 13:52:00,62.0,42.0,-100.00,SSW,210,1.0,-999.0,49,0.00,,,-99.99,,2013-01-31 21:52:00,
2013-01-31 14:00:00,63.0,42.0,-100.00,WNW,288,4.0,-999.0,46,0.00,,,-99.99,,2013-01-31 22:00:00,
2013-01-31 14:22:00,63.0,42.0,-100.00,WNW,288,4.0,-999.0,46,0.00,,,-99.99,,2013-01-31 22:22:00,
2013-01-31 14:33:00,63.0,42.0,-100.00,WNW,288,4.0,-999.0,46,0.00,,,-99.99,,2013-01-31 22:33:00,
2013-01-31 14:42:00,63.0,42.0,-100.00,WNW,288,4.0,-999.0,46,0.00,,,-99.99,,2013-01-31 22:42:00,
2013-01-31 14:52:00,63.0,42.0,-100.00,WNW,288,4.0,-999.0,46,0.00,,,-99.99,,2013-01-31 22:52:00,
2013-01-31 15:00:00,65.0,42.0,-100.00,NNW,347,3.0,-999.0,44,0.00,,,-99.99,,2013-01-31 23:00:00,
2013-01-31 15:22:00,65.0,42.0,-100.00,NNW,347,3.0,-999.0,44,0.00,,,-99.99,,2013-01-31 23:22:00,
2013-01-31 15:32:00,65.0,42.0,-100.00,NNW,347,3.0,-999.0,44,0.00,,,-99.99,,2013-01-31 23:32:00,
2013-01-31 15:42:00,65.0,42.0,-100.00,NNW,347,3.0,-999.0,44,0.00,,,-99.99,,2013-01-31 23:42:00,
2013-01-31 15:52:00,65.0,42.0,-100.00,NNW,347,3.0,-999.0,44,0.00,,,-99.99,,2013-01-31 23:52:00,
2013-01-31 16:00:00,65.0,43.0,-100.00,NNW,334,7.0,-999.0,43,0.00,,,-99.99,,2013-02-01 00:00:00,
2013-01-31 16:22:00,65.0,43.0,-100.00,NNW,334,7.0,-999.0,43,0.00,,,-99.99,,2013-02-01 00:22:00,
2013-01-31 16:32:00,65.0,43.0,-100.00,NNW,334,7.0,-999.0,43,0.00,,,-99.99,,2013-02-01 00:32:00,
2013-01-31 16:42:00,65.0,43.0,-100.00,NNW,334,7.0,-999.0,43,0.00,,,-99.99,,2013-02-01 00:42:00,
2013-01-31 16:52:00,65.0,43.0,-100.00,NNW,334,7.0,-999.0,43,0.00,,,-99.99,,2013-02-01 00:52:00,
2013-01-31 17:00:00,64.0,42.0,-100.00,WNW,301,5.0,-999.0,43,0.00,,,-99.99,,2013-02-01 01:00:00,
2013-01-31 17:22:00,64.0,42.0,-100.00,WNW,301,5.0,-999.0,43,0.00,,,-99.99,,2013-02-01 01:22:00,
2013-01-31 17:32:00,64.0,42.0,-100.00,WNW,301,5.0,-999.0,43,0.00,,,-99.99,,2013-02-01 01:32:00,
2013-01-31 17:42:00,64.0,42.0,-100.00,WNW,301,5.0,-999.0,43,0.00,,,-99.99,,2013-02-01 01:42:00,
2013-01-31 17:52:00,64.0,42.0,-100.00,WNW,301,5.0,-999.0,43,0.00,,,-99.99,,2013-02-01 01:52:00,
2013-01-31 18:00:00,59.0,45.0,-100.00,West,270,3.0,-999.0,58,0.00,,,-99.99,,2013-02-01 02:00:00,
2013-01-31 18:22:00,59.0,45.0,-100.00,West,270,3.0,-999.0,58,0.00,,,-99.99,,2013-02-01 02:22:00,
2013-01-31 18:32:00,59.0,45.0,-100.00,West,270,3.0,-999.0,58,0.00,,,-99.99,,2013-02-01 02:32:00,
2013-01-31 18:42:00,59.0,45.0,-100.00,West,270,3.0,-999.0,58,0.00,,,-99.99,,2013-02-01 02:42:00,
2013-01-31 18:52:00,59.0,45.0,-100.00,West,270,3.0,-999.0,58,0.00,,,-99.99,,2013-02-01 02:52:00,
2013-01-31 19:00:00,54.0,44.0,-100.00,SSE,164,2.0,-999.0,70,0.00,,,-99.99,,2013-02-01 03:00:00,
2013-01-31 19:22:00,54.0,44.0,-100.00,SSE,164,2.0,-999.0,70,0.00,,,-99.99,,2013-02-01 03:22:00,
2013-01-31 19:33:00,54.0,44.0,-100.00,SSE,164,2.0,-999.0,70,0.00,,,-99.99,,2013-02-01 03:33:00,
2013-01-31 19:42:00,54.0,44.0,-100.00,SSE,164,2.0,-999.0,70,0.00,,,-99.99,,2013-02-01 03:42:00,
2013-01-31 19:52:00,54.0,44.0,-100.00,SSE,164,2.0,-999.0,70,0.00,,,-99.99,,2013-02-01 03:52:00,
2013-01-31 20:00:00,49.0,43.0,-100.00,ESE,120,5.0,-999.0,78,0.00,,,-99.99,,2013-02-01 04:00:00,
2013-01-31 20:22:00,49.0,43.0,-100.00,ESE,120,5.0,-999.0,78,0.00,,,-99.99,,2013-02-01 04:22:00,
2013-01-31 20:32:00,49.0,43.0,-100.00,ESE,120,5.0,-999.0,78,0.00,,,-99.99,,2013-02-01 04:32:00,
2013-01-31 20:42:00,49.0,43.0,-100.00,ESE,120,5.0,-999.0,78,0.00,,,-99.99,,2013-02-01 04:42:00,
2013-01-31 20:52:00,49.0,43.0,-100.00,ESE,120,5.0,-999.0,78,0.00,,,-99.99,,2013-02-01 04:52:00,
2013-01-31 21:00:00,47.0,42.0,-100.00,ESE,111,4.0,-999.0,82,0.00,,,-99.99,,2013-02-01 05:00:00,
2013-01-31 21:22:00,47.0,42.0,-100.00,ESE,111,4.0,-999.0,82,0.00,,,-99.99,,2013-02-01 05:22:00,
2013-01-31 21:32:00,47.0,42.0,-100.00,ESE,111,4.0,-999.0,82,0.00,,,-99.99,,2013-02-01 05:32:00,
2013-01-31 21:42:00,47.0,42.0,-100.00,ESE,111,4.0,-999.0,82,0.00,,,-99.99,,2013-02-01 05:42:00,
2013-01-31 21:52:00,47.0,42.0,-100.00,ESE,111,4.0,-999.0,82,0.00,,,-99.99,,2013-02-01 05:52:00,
2013-01-31 22:00:00,46.0,41.0,-100.00,East,90,3.0,-999.0,82,0.00,,,-99.99,,2013-02-01 06:00:00,
2013-01-31 22:22:00,46.0,41.0,-100.00,East,90,3.0,-999.0,82,0.00,,,-99.99,,2013-02-01 06:22:00,
2013-01-31 22:32:00,46.0,41.0,-100.00,East,90,3.0,-999.0,82,0.00,,,-99.99,,2013-02-01 06:32:00,
2013-01-31 22:42:00,46.0,41.0,-100.00,East,90,3.0,-999.0,82,0.00,,,-99.99,,2013-02-01 06:42:00,
2013-01-31 22:52:00,46.0,41.0,-100.00,East,90,3.0,-999.0,82,0.00,,,-99.99,,2013-02-01 06:52:00,
2013-01-31 23:00:00,45.0,41.0,-100.00,SE,142,3.0,-999.0,86,0.00,,,-99.99,,2013-02-01 07:00:00,
2013-01-31 23:22:00,45.0,41.0,-100.00,SE,142,3.0,-999.0,86,0.00,,,-99.99,,2013-02-01 07:22:00,
2013-01-31 23:32:00,45.0,41.0,-100.00,SE,142,3.0,-999.0,86,0.00,,,-99.99,,2013-02-01 07:32:00,
2013-01-31 23:42:00,45.0,41.0,-100.00,SE,142,3.0,-999.0,86,0.00,,,-99.99,,2013-02-01 07:42:00,
2013-01-31 23:52:00,45.0,41.0,-100.00,SE,142,3.0,-999.0,86,0.00,,,-99.99,,2013-02-01 07:52:00,